sensor_id;sensor_type;location;lat;lon;timestamp;pressure;altitude;pressure_sealevel;temperature;humidity
26839;BME280;40088;51.214;6.786;2023-04-16T00:08:50;101704.81;;;17.30;54.40
26839;BME280;40088;51.214;6.786;2023-04-16T00:18:50;101699.84;;;17.34;54.09
26839;BME280;40088;51.214;6.786;2023-04-16T00:28:51;101708.78;;;17.36;54.31
26839;BME280;40088;51.214;6.786;2023-04-16T00:38:51;101712.03;;;17.31;54.50
26839;BME280;40088;51.214;6.786;2023-04-16T00:48:52;101707.44;;;17.32;54.26
26839;BME280;40088;51.214;6.786;2023-04-16T00:58:56;101709.81;;;17.35;54.21
26839;BME280;40088;51.214;6.786;2023-04-16T01:08:56;101711.91;;;17.33;54.46
26839;BME280;40088;51.214;6.786;2023-04-16T01:18:56;101726.53;;;17.33;54.34
26839;BME280;40088;51.214;6.786;2023-04-16T01:28:58;101717.03;;;17.36;54.24
26839;BME280;40088;51.214;6.786;2023-04-16T01:38:58;101733.22;;;17.31;54.10
26839;BME280;40088;51.214;6.786;2023-04-16T01:48:58;101730.13;;;17.34;54.30
26839;BME280;40088;51.214;6.786;2023-04-16T01:58:59;101737.19;;;17.36;54.37
26839;BME280;40088;51.214;6.786;2023-04-16T02:09:00;101735.84;;;17.32;54.58
26839;BME280;40088;51.214;6.786;2023-04-16T02:19:00;101730.47;;;17.31;54.66
26839;BME280;40088;51.214;6.786;2023-04-16T02:29:01;101734.41;;;17.36;54.45
26839;BME280;40088;51.214;6.786;2023-04-16T02:39:01;101730.81;;;17.36;54.52
26839;BME280;40088;51.214;6.786;2023-04-16T02:49:01;101731.16;;;17.41;54.42
26839;BME280;40088;51.214;6.786;2023-04-16T02:59:02;101720.81;;;17.43;54.33
26839;BME280;40088;51.214;6.786;2023-04-16T03:09:02;101733.22;;;17.47;54.31
26839;BME280;40088;51.214;6.786;2023-04-16T03:19:02;101744.06;;;17.49;54.33
26839;BME280;40088;51.214;6.786;2023-04-16T03:29:03;101754.91;;;17.50;54.33
26839;BME280;40088;51.214;6.786;2023-04-16T03:39:03;101744.38;;;17.54;54.31
26839;BME280;40088;51.214;6.786;2023-04-16T03:49:03;101745.75;;;17.58;54.10
26839;BME280;40088;51.214;6.786;2023-04-16T03:59:03;101751.63;;;17.55;54.38
26839;BME280;40088;51.214;6.786;2023-04-16T04:09:04;101752.81;;;17.60;54.27
26839;BME280;40088;51.214;6.786;2023-04-16T04:19:04;101750.06;;;17.60;54.21
26839;BME280;40088;51.214;6.786;2023-04-16T04:29:05;101758.84;;;17.64;54.25
26839;BME280;40088;51.214;6.786;2023-04-16T04:39:05;101766.91;;;17.65;54.29
26839;BME280;40088;51.214;6.786;2023-04-16T04:49:06;101772.44;;;17.65;54.12
26839;BME280;40088;51.214;6.786;2023-04-16T04:59:06;101780.19;;;17.62;54.42
26839;BME280;40088;51.214;6.786;2023-04-16T05:09:06;101787.94;;;17.66;54.28
26839;BME280;40088;51.214;6.786;2023-04-16T05:19:10;101796.03;;;17.68;54.28
26839;BME280;40088;51.214;6.786;2023-04-16T05:29:10;101808.94;;;17.67;54.16
26839;BME280;40088;51.214;6.786;2023-04-16T05:39:11;101814.28;;;17.69;54.32
26839;BME280;40088;51.214;6.786;2023-04-16T05:49:11;101825.47;;;17.67;54.33
26839;BME280;40088;51.214;6.786;2023-04-16T05:59:11;101828.75;;;17.71;54.25
26839;BME280;40088;51.214;6.786;2023-04-16T06:09:12;101842.00;;;17.67;54.48
26839;BME280;40088;51.214;6.786;2023-04-16T06:19:12;101852.03;;;17.68;54.48
26839;BME280;40088;51.214;6.786;2023-04-16T06:29:12;101855.16;;;17.74;54.39
26839;BME280;40088;51.214;6.786;2023-04-16T06:39:12;101866.50;;;17.70;54.50
26839;BME280;40088;51.214;6.786;2023-04-16T06:49:13;101875.63;;;17.71;54.51
26839;BME280;40088;51.214;6.786;2023-04-16T06:59:14;101879.22;;;17.71;54.48
26839;BME280;40088;51.214;6.786;2023-04-16T07:09:14;101895.97;;;17.70;54.51
26839;BME280;40088;51.214;6.786;2023-04-16T07:19:16;101885.59;;;17.72;54.49
26839;BME280;40088;51.214;6.786;2023-04-16T07:29:17;101897.88;;;17.78;54.32
26839;BME280;40088;51.214;6.786;2023-04-16T07:39:17;101900.97;;;17.75;54.45
26839;BME280;40088;51.214;6.786;2023-04-16T07:49:17;101896.34;;;17.75;54.45
26839;BME280;40088;51.214;6.786;2023-04-16T07:59:17;101904.41;;;17.93;54.36
26839;BME280;40088;51.214;6.786;2023-04-16T08:09:19;101918.53;;;17.90;54.54
26839;BME280;40088;51.214;6.786;2023-04-16T08:19:20;101929.56;;;17.98;54.34
26839;BME280;40088;51.214;6.786;2023-04-16T08:29:20;101943.66;;;18.28;53.69
26839;BME280;40088;51.214;6.786;2023-04-16T08:39:24;101945.03;;;18.23;53.73
26839;BME280;40088;51.214;6.786;2023-04-16T08:49:25;101960.00;;;18.29;53.69
26839;BME280;40088;51.214;6.786;2023-04-16T08:59:25;101956.06;;;18.32;53.63
26839;BME280;40088;51.214;6.786;2023-04-16T09:09:27;101960.00;;;18.37;53.80
26839;BME280;40088;51.214;6.786;2023-04-16T09:19:27;101963.44;;;18.39;53.54
26839;BME280;40088;51.214;6.786;2023-04-16T09:32:09;101973.47;;;18.32;53.71
26839;BME280;40088;51.214;6.786;2023-04-16T09:42:11;101970.72;;;18.32;53.43
26839;BME280;40088;51.214;6.786;2023-04-16T09:52:16;101983.13;;;18.36;53.80
26839;BME280;40088;51.214;6.786;2023-04-16T10:02:18;101980.72;;;18.33;53.60
26839;BME280;40088;51.214;6.786;2023-04-16T10:12:19;101983.28;;;18.35;53.60
26839;BME280;40088;51.214;6.786;2023-04-16T10:22:20;101989.50;;;18.37;53.49
26839;BME280;40088;51.214;6.786;2023-04-16T10:32:21;101996.41;;;18.41;53.46
26839;BME280;40088;51.214;6.786;2023-04-16T10:42:22;101990.88;;;18.41;53.60
26839;BME280;40088;51.214;6.786;2023-04-16T10:52:22;101969.47;;;18.43;53.51
26839;BME280;40088;51.214;6.786;2023-04-16T11:12:42;101986.56;;;18.38;53.55
26839;BME280;40088;51.214;6.786;2023-04-16T11:22:44;101984.84;;;18.45;53.48
26839;BME280;40088;51.214;6.786;2023-04-16T11:32:44;101978.28;;;18.46;53.36
26839;BME280;40088;51.214;6.786;2023-04-16T11:42:45;101985.50;;;18.47;53.45
26839;BME280;40088;51.214;6.786;2023-04-16T11:52:45;101981.91;;;18.47;53.34
26839;BME280;40088;51.214;6.786;2023-04-16T12:02:51;101983.28;;;18.43;53.44
26839;BME280;40088;51.214;6.786;2023-04-16T12:12:52;101978.81;;;18.42;53.32
26839;BME280;40088;51.214;6.786;2023-04-16T12:22:52;102002.25;;;18.38;53.32
26839;BME280;40088;51.214;6.786;2023-04-16T12:33:14;102001.41;;;18.37;53.37
26839;BME280;40088;51.214;6.786;2023-04-16T12:43:15;102003.63;;;18.34;53.51
26839;BME280;40088;51.214;6.786;2023-04-16T12:53:16;101991.06;;;18.31;53.48
26839;BME280;40088;51.214;6.786;2023-04-16T13:03:16;101994.69;;;18.32;53.57
26839;BME280;40088;51.214;6.786;2023-04-16T13:13:17;101989.34;;;18.30;53.48
26839;BME280;40088;51.214;6.786;2023-04-16T13:23:17;101987.78;;;18.28;53.56
26839;BME280;40088;51.214;6.786;2023-04-16T13:33:17;101989.50;;;18.29;53.55
26839;BME280;40088;51.214;6.786;2023-04-16T13:43:18;101996.06;;;18.28;53.53
26839;BME280;40088;51.214;6.786;2023-04-16T13:53:18;101992.44;;;18.27;53.55
26839;BME280;40088;51.214;6.786;2023-04-16T14:03:19;101993.31;;;18.28;53.53
26839;BME280;40088;51.214;6.786;2023-04-16T14:13:20;101984.00;;;18.29;53.57
26839;BME280;40088;51.214;6.786;2023-04-16T14:23:20;101986.75;;;18.29;53.47
26839;BME280;40088;51.214;6.786;2023-04-16T14:33:20;101981.22;;;18.29;53.56
26839;BME280;40088;51.214;6.786;2023-04-16T14:43:21;101987.78;;;18.28;53.54
26839;BME280;40088;51.214;6.786;2023-04-16T14:53:22;101987.97;;;18.26;53.47
26839;BME280;40088;51.214;6.786;2023-04-16T15:03:23;101984.16;;;18.27;53.45
26839;BME280;40088;51.214;6.786;2023-04-16T15:13:23;101990.56;;;18.28;53.46
26839;BME280;40088;51.214;6.786;2023-04-16T15:23:24;101974.19;;;18.26;53.44
26839;BME280;40088;51.214;6.786;2023-04-16T15:33:24;101996.06;;;18.28;53.41
26839;BME280;40088;51.214;6.786;2023-04-16T15:43:26;101988.84;;;18.27;53.36
26839;BME280;40088;51.214;6.786;2023-04-16T15:53:28;101990.56;;;18.28;53.38
26839;BME280;40088;51.214;6.786;2023-04-16T16:03:28;101988.84;;;18.27;53.43
26839;BME280;40088;51.214;6.786;2023-04-16T16:13:31;101989.34;;;18.30;53.60
26839;BME280;40088;51.214;6.786;2023-04-16T16:23:31;101990.22;;;18.31;53.40
26839;BME280;40088;51.214;6.786;2023-04-16T16:33:31;101998.31;;;18.32;53.45
26839;BME280;40088;51.214;6.786;2023-04-16T16:43:32;102015.72;;;18.33;53.59
26839;BME280;40088;51.214;6.786;2023-04-16T16:53:32;102021.06;;;18.34;53.43
26839;BME280;40088;51.214;6.786;2023-04-16T17:03:33;102015.75;;;18.25;53.50
26839;BME280;40088;51.214;6.786;2023-04-16T17:13:33;102015.75;;;18.16;53.69
26839;BME280;40088;51.214;6.786;2023-04-16T17:23:34;102025.41;;;18.12;53.75
26839;BME280;40088;51.214;6.786;2023-04-16T17:33:34;102024.00;;;18.08;53.81
26839;BME280;40088;51.214;6.786;2023-04-16T17:43:34;102029.03;;;18.05;53.97
26839;BME280;40088;51.214;6.786;2023-04-16T17:53:35;102039.34;;;18.03;53.99
26839;BME280;40088;51.214;6.786;2023-04-16T18:03:36;102040.22;;;17.87;54.44
26839;BME280;40088;51.214;6.786;2023-04-16T18:13:37;102043.97;;;17.78;54.84
26839;BME280;40088;51.214;6.786;2023-04-16T18:23:37;102049.69;;;17.76;55.10
26839;BME280;40088;51.214;6.786;2023-04-16T18:33:37;102056.41;;;17.74;54.95
26839;BME280;40088;51.214;6.786;2023-04-16T18:43:38;102065.28;;;17.67;55.19
26839;BME280;40088;51.214;6.786;2023-04-16T18:53:38;102075.81;;;17.64;55.32
26839;BME280;40088;51.214;6.786;2023-04-16T19:03:38;102079.75;;;17.61;55.60
26839;BME280;40088;51.214;6.786;2023-04-16T19:13:38;102088.47;;;17.75;55.04
26839;BME280;40088;51.214;6.786;2023-04-16T19:23:39;102096.03;;;17.81;54.95
26839;BME280;40088;51.214;6.786;2023-04-16T19:33:39;102098.81;;;17.81;55.07
26839;BME280;40088;51.214;6.786;2023-04-16T19:43:40;102099.47;;;17.83;55.04
26839;BME280;40088;51.214;6.786;2023-04-16T19:53:40;102112.09;;;17.85;54.97
26839;BME280;40088;51.214;6.786;2023-04-16T20:03:41;102116.56;;;17.86;54.95
26839;BME280;40088;51.214;6.786;2023-04-16T20:13:41;102114.84;;;17.85;55.00
26839;BME280;40088;51.214;6.786;2023-04-16T20:23:42;102114.66;;;17.87;55.27
26839;BME280;40088;51.214;6.786;2023-04-16T20:33:42;102115.53;;;17.87;54.95
26839;BME280;40088;51.214;6.786;2023-04-16T20:43:42;102119.13;;;17.88;54.95
26839;BME280;40088;51.214;6.786;2023-04-16T20:53:43;102118.13;;;17.89;54.97
26839;BME280;40088;51.214;6.786;2023-04-16T21:03:43;102121.56;;;17.91;54.77
26839;BME280;40088;51.214;6.786;2023-04-16T21:13:43;102117.78;;;17.92;54.99
26839;BME280;40088;51.214;6.786;2023-04-16T21:23:44;102111.59;;;17.90;54.89
26839;BME280;40088;51.214;6.786;2023-04-16T21:33:44;102116.91;;;17.91;54.80
26839;BME280;40088;51.214;6.786;2023-04-16T21:43:45;102115.88;;;17.92;55.00
26839;BME280;40088;51.214;6.786;2023-04-16T21:53:46;102117.59;;;17.93;54.80
26839;BME280;40088;51.214;6.786;2023-04-16T22:03:46;102116.59;;;17.94;54.69
26839;BME280;40088;51.214;6.786;2023-04-16T22:13:49;102114.84;;;17.93;54.70
26839;BME280;40088;51.214;6.786;2023-04-16T22:23:49;102110.03;;;17.95;54.64
26839;BME280;40088;51.214;6.786;2023-04-16T22:33:50;102108.13;;;17.96;54.50
26839;BME280;40088;51.214;6.786;2023-04-16T22:43:50;102108.47;;;17.93;54.62
26839;BME280;40088;51.214;6.786;2023-04-16T22:53:50;102099.50;;;17.91;54.77
26839;BME280;40088;51.214;6.786;2023-04-16T23:03:51;102100.03;;;17.94;54.54
26839;BME280;40088;51.214;6.786;2023-04-16T23:13:51;102109.19;;;17.95;54.46
26839;BME280;40088;51.214;6.786;2023-04-16T23:23:51;102102.94;;;17.93;54.62
26839;BME280;40088;51.214;6.786;2023-04-16T23:33:51;102108.81;;;17.90;54.74
26839;BME280;40088;51.214;6.786;2023-04-16T23:43:53;102107.59;;;17.92;55.01
26839;BME280;40088;51.214;6.786;2023-04-16T23:53:53;102104.16;;;17.90;54.79
